createdAt,value
2022-09-20T00:01:33.519Z,2.60
2022-09-20T00:04:05.785Z,2.95
2022-09-20T00:06:35.080Z,2.90
2022-09-20T00:09:03.668Z,2.78
2022-09-20T00:11:33.736Z,3.20
2022-09-20T00:14:03.906Z,3.15
2022-09-20T00:16:34.203Z,3.13
2022-09-20T00:19:05.847Z,2.83
2022-09-20T00:21:36.491Z,3.00
2022-09-20T00:24:05.972Z,3.40
2022-09-20T00:26:34.605Z,3.08
2022-09-20T00:29:02.763Z,3.42
2022-09-20T00:31:31.094Z,3.10
2022-09-20T00:34:17.990Z,3.30
2022-09-20T00:36:47.646Z,3.50
2022-09-20T00:39:17.092Z,3.70
2022-09-20T00:41:46.063Z,3.47
2022-09-20T00:44:50.817Z,4.03
2022-09-20T00:47:26.886Z,3.63
2022-09-20T00:50:01.369Z,2.78
2022-09-20T00:52:32.842Z,2.90
2022-09-20T00:55:02.826Z,2.67
2022-09-20T00:57:35.566Z,2.97
2022-09-20T01:00:07.717Z,3.05
2022-09-20T01:02:38.961Z,2.63
2022-09-20T01:05:10.490Z,2.40
2022-09-20T01:07:40.484Z,2.97
2022-09-20T01:10:09.601Z,2.63
2022-09-20T01:12:40.762Z,2.67
2022-09-20T01:15:11.128Z,2.90
2022-09-20T01:17:44.105Z,2.53
2022-09-20T01:20:20.691Z,2.70
2022-09-20T01:23:02.400Z,2.80
2022-09-20T01:25:50.980Z,2.92
2022-09-20T01:28:20.702Z,3.20
2022-09-20T01:30:56.494Z,3.10
2022-09-20T01:33:32.000Z,3.15
2022-09-20T01:36:05.888Z,3.97
2022-09-20T01:38:43.606Z,3.28
2022-09-20T01:41:17.005Z,3.40
2022-09-20T01:43:53.156Z,3.45
2022-09-20T01:46:31.179Z,3.67
2022-09-20T01:49:11.123Z,3.47
2022-09-20T01:52:19.538Z,3.88
2022-09-20T01:55:16.922Z,3.50
2022-09-20T01:58:04.767Z,3.55
2022-09-20T02:00:49.654Z,4.32
2022-09-20T02:03:48.726Z,3.78
2022-09-20T02:06:39.303Z,4.00
2022-09-20T02:09:39.598Z,4.18
2022-09-20T02:12:39.864Z,4.65
2022-09-20T02:15:22.914Z,4.30
2022-09-20T02:18:02.020Z,3.85
2022-09-20T02:20:40.843Z,3.80
2022-09-20T02:23:29.090Z,4.20
2022-09-20T02:26:11.802Z,4.35
2022-09-20T02:28:56.673Z,4.30
2022-09-20T02:31:38.102Z,4.60
2022-09-20T02:34:31.354Z,4.32
2022-09-20T02:37:17.203Z,4.90
2022-09-20T02:39:55.266Z,4.10
2022-09-20T02:42:31.127Z,5.03
2022-09-20T02:45:05.586Z,4.80
2022-09-20T02:47:37.759Z,5.55
2022-09-20T02:50:26.230Z,4.45
2022-09-20T02:53:08.970Z,4.80
2022-09-20T02:55:43.254Z,5.20
2022-09-20T02:58:35.144Z,4.80
2022-09-20T03:01:09.164Z,5.45
2022-09-20T03:03:47.626Z,5.10
2022-09-20T03:06:27.069Z,5.38
2022-09-20T03:09:03.496Z,4.22
2022-09-20T03:11:38.533Z,4.70
2022-09-20T03:14:23.311Z,4.63
2022-09-20T03:17:08.203Z,4.65
2022-09-20T03:19:49.848Z,4.68
2022-09-20T03:22:32.452Z,4.85
2022-09-20T03:25:18.709Z,4.13
2022-09-20T03:27:54.724Z,4.88
2022-09-20T03:30:36.312Z,4.15
2022-09-20T03:33:13.406Z,4.88
2022-09-20T03:35:53.756Z,4.55
2022-09-20T03:38:43.117Z,4.60
2022-09-20T03:41:37.044Z,5.15
2022-09-20T03:44:51.668Z,5.80
2022-09-20T03:47:33.346Z,4.78
2022-09-20T03:50:33.088Z,5.45
2022-09-20T03:53:26.666Z,5.10
2022-09-20T03:56:14.450Z,5.03
2022-09-20T03:59:13.381Z,4.78
2022-09-20T04:01:56.755Z,5.75
2022-09-20T04:04:32.731Z,4.40
2022-09-20T04:07:14.598Z,5.40
2022-09-20T04:10:04.508Z,4.65
2022-09-20T04:12:48.375Z,4.13
2022-09-20T04:15:27.452Z,5.90
2022-09-20T04:18:01.062Z,5.90
2022-09-20T04:20:37.802Z,4.93
2022-09-20T04:23:19.207Z,5.60
2022-09-20T04:25:51.296Z,5.57
2022-09-20T04:28:27.096Z,5.07
2022-09-20T04:31:01.034Z,5.28
2022-09-20T04:33:35.967Z,5.78
2022-09-20T04:36:32.240Z,5.57
2022-09-20T04:39:10.138Z,5.65
2022-09-20T04:42:05.007Z,5.72
2022-09-20T04:45:05.363Z,6.05
2022-09-20T04:48:02.623Z,6.00
2022-09-20T04:50:54.495Z,5.75
2022-09-20T04:53:48.171Z,6.07
2022-09-20T04:56:22.231Z,6.00
2022-09-20T04:59:06.246Z,5.72
2022-09-20T05:02:30.891Z,6.20
2022-09-20T05:05:43.768Z,5.88
2022-09-20T05:09:00.426Z,5.20
2022-09-20T05:12:12.100Z,5.57
2022-09-20T05:15:10.464Z,5.57
2022-09-20T05:17:53.078Z,5.78
2022-09-20T05:20:48.814Z,6.20
2022-09-20T05:23:33.545Z,6.30
2022-09-20T05:26:16.024Z,5.63
2022-09-20T05:28:54.909Z,5.10
2022-09-20T05:31:33.977Z,5.97
2022-09-20T05:34:18.294Z,5.50
2022-09-20T05:36:56.400Z,6.30
2022-09-20T05:39:37.991Z,5.90
2022-09-20T05:42:14.163Z,6.80
2022-09-20T05:44:56.100Z,6.57
2022-09-20T05:47:36.097Z,6.53
2022-09-20T05:50:25.686Z,6.40
2022-09-20T05:52:59.308Z,6.65
2022-09-20T05:55:48.018Z,7.68
2022-09-20T05:58:35.526Z,7.63
2022-09-20T06:01:10.512Z,7.22
2022-09-20T06:03:43.479Z,6.78
2022-09-20T06:06:21.781Z,6.22
2022-09-20T06:09:12.723Z,5.10
2022-09-20T06:11:53.435Z,4.35
2022-09-20T06:14:34.685Z,4.85
2022-09-20T06:17:12.930Z,4.25
2022-09-20T06:19:46.737Z,4.60
2022-09-20T06:22:24.997Z,4.95
2022-09-20T06:25:02.151Z,5.00
2022-09-20T06:27:36.433Z,4.75
2022-09-20T06:30:08.626Z,5.28
2022-09-20T06:32:53.790Z,5.13
2022-09-20T06:35:23.200Z,5.47
2022-09-20T06:38:24.643Z,4.78
2022-09-20T06:41:10.660Z,5.35
2022-09-20T06:43:41.938Z,5.03
2022-09-20T06:46:10.677Z,5.63
2022-09-20T06:48:40.054Z,5.90
2022-09-20T06:51:09.486Z,5.28
2022-09-20T06:53:42.506Z,5.47
2022-09-20T06:56:17.166Z,5.93
2022-09-20T06:58:45.717Z,5.90
2022-09-20T07:01:14.385Z,5.50
2022-09-20T07:03:42.921Z,5.45
2022-09-20T07:06:11.803Z,5.38
2022-09-20T07:08:41.849Z,5.63
2022-09-20T07:11:15.080Z,4.60
2022-09-20T07:13:43.995Z,4.45
2022-09-20T07:16:15.169Z,4.30
2022-09-20T07:18:44.144Z,4.15
2022-09-20T07:21:13.561Z,3.75
2022-09-20T07:23:46.143Z,3.72
2022-09-20T07:26:20.167Z,4.15
2022-09-20T07:28:49.672Z,3.80
2022-09-20T07:31:18.721Z,3.80
2022-09-20T07:33:47.313Z,3.60
2022-09-20T07:36:16.711Z,3.75
2022-09-20T07:38:50.177Z,3.30
2022-09-20T07:41:19.884Z,3.00
2022-09-20T07:43:48.439Z,3.17
2022-09-20T07:46:16.632Z,3.10
2022-09-20T07:48:45.046Z,3.08
2022-09-20T07:51:14.798Z,3.38
2022-09-20T07:53:43.598Z,2.92
2022-09-20T07:56:15.889Z,3.08
2022-09-20T07:58:50.035Z,2.65
2022-09-20T08:01:22.603Z,2.92
2022-09-20T08:03:52.021Z,2.90
2022-09-20T08:06:21.492Z,2.97
2022-09-20T08:08:51.852Z,3.00
2022-09-20T08:11:27.826Z,2.60
2022-09-20T08:14:13.134Z,2.78
2022-09-20T08:16:43.086Z,2.72
2022-09-20T08:19:16.698Z,3.17
2022-09-20T08:24:14.561Z,3.05
2022-09-20T08:26:45.146Z,3.10
2022-09-20T08:29:15.317Z,3.38
2022-09-20T08:31:44.481Z,4.05
2022-09-20T08:34:15.303Z,3.55
2022-09-20T08:36:46.885Z,3.90
2022-09-20T08:42:14.385Z,4.20
2022-09-20T08:44:57.789Z,4.55
2022-09-20T08:47:29.864Z,4.30
2022-09-20T08:50:00.737Z,4.15
2022-09-20T08:52:36.234Z,4.38
2022-09-20T08:55:07.472Z,4.07
2022-09-20T08:57:38.029Z,3.80
2022-09-20T09:00:07.834Z,3.40
2022-09-20T09:02:36.016Z,3.25
2022-09-20T09:05:13.672Z,3.05
2022-09-20T09:07:42.341Z,3.45
2022-09-20T09:10:11.145Z,3.20
2022-09-20T09:12:48.868Z,2.70
2022-09-20T09:15:26.535Z,2.35
2022-09-20T09:17:56.528Z,2.25
2022-09-20T09:20:25.690Z,2.47
2022-09-20T09:23:02.873Z,1.33
2022-09-20T09:25:34.371Z,1.20
2022-09-20T09:28:13.833Z,1.65
2022-09-20T09:30:43.559Z,1.40
2022-09-20T09:33:28.257Z,1.13
2022-09-20T09:35:59.353Z,1.05
2022-09-20T09:38:29.854Z,0.73
2022-09-20T09:40:59.897Z,0.95
2022-09-20T09:43:31.589Z,0.90
2022-09-20T09:46:21.482Z,0.77
2022-09-20T09:49:07.722Z,0.60
2022-09-20T09:51:38.065Z,0.73
2022-09-20T09:54:08.747Z,0.50
2022-09-20T09:56:57.408Z,0.60
2022-09-20T09:59:49.437Z,0.77
2022-09-20T10:02:41.399Z,0.60
2022-09-20T10:05:19.686Z,0.60
2022-09-20T10:07:55.094Z,0.60
2022-09-20T10:10:32.893Z,0.93
2022-09-20T10:13:15.349Z,0.70
2022-09-20T10:15:52.994Z,0.60
2022-09-20T10:18:35.839Z,0.50
2022-09-20T10:21:12.095Z,0.82
2022-09-20T10:24:03.686Z,0.80
2022-09-20T10:26:53.609Z,0.60
2022-09-20T10:29:33.161Z,0.88
2022-09-20T10:32:15.429Z,0.60
2022-09-20T10:34:59.124Z,0.77
2022-09-20T10:37:35.436Z,0.65
2022-09-20T10:40:14.268Z,0.70
2022-09-20T10:43:05.661Z,0.80
2022-09-20T10:48:35.732Z,0.65
2022-09-20T10:51:12.727Z,0.80
2022-09-20T10:53:51.545Z,0.63
2022-09-20T10:56:28.757Z,0.80
2022-09-20T10:59:23.529Z,0.70
2022-09-20T11:02:02.805Z,0.57
2022-09-20T11:04:53.484Z,0.90
2022-09-20T11:07:29.629Z,1.20
2022-09-20T11:10:03.691Z,1.13
2022-09-20T11:12:38.343Z,0.90
2022-09-20T11:15:15.814Z,0.90
2022-09-20T11:17:53.319Z,0.80
2022-09-20T11:20:27.320Z,0.80
2022-09-20T11:23:02.894Z,0.90
2022-09-20T11:25:38.223Z,0.70
2022-09-20T11:28:14.104Z,1.02
2022-09-20T11:30:48.382Z,0.63
2022-09-20T11:33:24.001Z,1.00
2022-09-20T11:35:57.506Z,1.00
2022-09-20T11:38:31.472Z,0.93
2022-09-20T11:41:03.767Z,1.05
2022-09-20T11:43:34.007Z,0.90
2022-09-20T11:46:05.856Z,1.00
2022-09-20T11:48:37.113Z,0.90
2022-09-20T11:51:32.262Z,0.90
2022-09-20T11:54:29.304Z,1.20
2022-09-20T11:56:58.665Z,0.88
2022-09-20T11:59:34.254Z,1.00
2022-09-20T12:02:04.656Z,1.02
2022-09-20T12:04:36.937Z,1.10
2022-09-20T12:07:18.049Z,0.88
2022-09-20T12:09:52.975Z,1.05
2022-09-20T12:12:32.670Z,0.90
2022-09-20T12:15:03.755Z,1.67
2022-09-20T12:18:08.911Z,1.10
2022-09-20T12:21:00.307Z,1.30
2022-09-20T12:24:18.204Z,1.60
2022-09-20T12:26:48.609Z,1.48
2022-09-20T12:29:53.302Z,1.30
2022-09-20T12:32:43.522Z,1.45
2022-09-20T12:36:05.710Z,1.27
2022-09-20T12:38:53.085Z,1.40
2022-09-20T12:41:28.549Z,1.63
2022-09-20T12:44:24.468Z,1.15
2022-09-20T12:46:56.118Z,0.57
2022-09-20T12:49:58.191Z,0.70
2022-09-20T12:52:53.909Z,1.02
2022-09-20T12:55:45.875Z,0.73
2022-09-20T12:58:29.727Z,0.70
2022-09-20T13:03:48.355Z,0.57
2022-09-20T13:06:30.132Z,1.00
2022-09-20T13:09:06.065Z,0.70
2022-09-20T13:11:41.776Z,1.00
2022-09-20T13:14:17.412Z,0.70
2022-09-20T13:16:53.618Z,0.93
2022-09-20T13:19:26.018Z,0.90
2022-09-20T13:21:59.428Z,0.90
2022-09-20T13:24:29.945Z,0.60
2022-09-20T13:27:03.870Z,0.82
2022-09-20T13:29:36.107Z,0.63
2022-09-20T13:32:18.618Z,0.70
2022-09-20T13:34:47.050Z,0.73
2022-09-20T13:37:21.316Z,0.60
2022-09-20T13:39:55.561Z,0.63
2022-09-20T13:42:24.761Z,0.85
2022-09-20T13:44:54.536Z,0.50
2022-09-20T13:47:24.460Z,0.60
2022-09-20T13:49:53.174Z,0.70
2022-09-20T13:52:26.645Z,0.90
2022-09-20T13:54:56.540Z,0.70
2022-09-20T13:57:28.042Z,0.50
2022-09-20T13:59:58.691Z,0.90
2022-09-20T14:02:30.342Z,1.20
2022-09-20T14:05:01.893Z,0.57
2022-09-20T14:07:31.115Z,0.95
2022-09-20T14:09:59.665Z,0.90
2022-09-20T14:12:29.135Z,0.88
2022-09-20T14:14:59.527Z,0.73
2022-09-20T14:17:32.967Z,0.70
2022-09-20T14:20:01.370Z,0.70
2022-09-20T14:22:30.857Z,0.70
2022-09-20T14:25:04.518Z,0.60
2022-09-20T14:30:03.932Z,0.73
2022-09-20T14:32:40.506Z,0.73
2022-09-20T14:35:16.596Z,0.70
2022-09-20T14:37:47.997Z,0.60
2022-09-20T14:40:26.260Z,0.80
2022-09-20T14:42:57.603Z,0.70
2022-09-20T14:45:30.987Z,0.70
2022-09-20T14:48:10.468Z,0.60
2022-09-20T14:50:42.190Z,0.73
2022-09-20T14:53:28.032Z,0.80
2022-09-20T14:56:08.792Z,1.05
2022-09-20T14:59:05.830Z,0.80
2022-09-20T15:01:37.142Z,0.98
2022-09-20T15:04:10.870Z,1.00
2022-09-20T15:06:40.236Z,0.90
2022-09-20T15:09:10.570Z,0.70
2022-09-20T15:11:39.384Z,0.80
2022-09-20T15:14:07.522Z,0.80
2022-09-20T15:16:37.298Z,0.93
2022-09-20T15:19:06.185Z,0.80
2022-09-20T15:21:34.463Z,0.80
2022-09-20T15:24:03.080Z,0.80
2022-09-20T15:26:33.072Z,0.93
2022-09-20T15:29:01.342Z,1.00
2022-09-20T15:31:29.661Z,1.20
2022-09-20T15:33:59.628Z,1.35
2022-09-20T15:36:31.944Z,1.10
2022-09-20T15:39:00.570Z,1.50
2022-09-20T15:41:31.205Z,1.40
2022-09-20T15:43:59.767Z,1.33
2022-09-20T15:46:28.527Z,1.55
2022-09-20T15:49:00.335Z,1.58
2022-09-20T15:51:30.711Z,1.40
2022-09-20T15:54:01.200Z,1.50
2022-09-20T15:56:31.201Z,1.50
2022-09-20T15:59:01.007Z,1.70
2022-09-20T16:01:32.554Z,1.88
2022-09-20T16:04:08.166Z,1.42
2022-09-20T16:06:37.347Z,1.45
2022-09-20T16:09:06.311Z,1.50
2022-09-20T16:11:35.198Z,1.10
2022-09-20T16:14:04.188Z,1.08
2022-09-20T16:16:38.891Z,0.98
2022-09-20T16:19:21.405Z,0.70
2022-09-20T16:21:57.657Z,0.80
2022-09-20T16:24:28.979Z,1.08
2022-09-20T16:26:57.451Z,0.75
2022-09-20T16:29:26.941Z,0.73
2022-09-20T16:31:56.282Z,0.90
2022-09-20T16:34:30.662Z,0.77
2022-09-20T16:37:01.821Z,0.80
2022-09-20T16:39:31.622Z,0.90
2022-09-20T16:42:05.159Z,0.75
2022-09-20T16:44:35.020Z,1.45
2022-09-20T16:47:03.405Z,1.10
2022-09-20T16:49:33.364Z,1.10
2022-09-20T16:52:01.564Z,1.00
2022-09-20T16:54:32.120Z,1.20
2022-09-20T16:57:00.725Z,0.80
2022-09-20T16:59:28.909Z,0.82
2022-09-20T17:01:57.140Z,1.48
2022-09-20T17:04:25.477Z,1.70
2022-09-20T17:06:55.668Z,1.30
2022-09-20T17:09:23.882Z,1.60
2022-09-20T17:11:52.302Z,1.58
2022-09-20T17:14:21.980Z,1.60
2022-09-20T17:16:51.529Z,1.85
2022-09-20T17:19:21.240Z,2.00
2022-09-20T17:21:51.719Z,2.30
2022-09-20T17:24:23.294Z,2.00
2022-09-20T17:26:52.418Z,2.10
2022-09-20T17:29:21.960Z,2.20
2022-09-20T17:31:58.468Z,2.20
2022-09-20T17:34:29.434Z,2.47
2022-09-20T17:36:58.097Z,2.30
2022-09-20T17:39:27.679Z,2.13
2022-09-20T17:41:55.908Z,2.03
2022-09-20T17:44:24.583Z,2.30
2022-09-20T17:46:54.160Z,1.80
2022-09-20T17:49:23.967Z,2.15
2022-09-20T17:51:54.080Z,2.40
2022-09-20T17:54:23.438Z,2.28
2022-09-20T17:56:56.269Z,2.67
2022-09-20T17:59:24.835Z,2.95
2022-09-20T18:01:54.463Z,2.72
2022-09-20T18:04:24.881Z,2.63
2022-09-20T18:06:54.751Z,3.28
2022-09-20T18:09:25.639Z,3.22
2022-09-20T18:11:57.026Z,3.50
2022-09-20T18:14:27.921Z,3.33
2022-09-20T18:16:59.307Z,3.47
2022-09-20T18:19:33.086Z,3.45
2022-09-20T18:22:02.166Z,3.90
2022-09-20T18:24:31.475Z,4.13
2022-09-20T18:27:01.693Z,4.15
2022-09-20T18:29:33.519Z,4.32
2022-09-20T18:32:02.334Z,4.43
2022-09-20T18:34:32.138Z,4.70
2022-09-20T18:37:02.999Z,4.45
2022-09-20T18:39:33.673Z,4.57
2022-09-20T18:42:03.943Z,4.80
2022-09-20T18:44:34.393Z,5.35
2022-09-20T18:47:03.432Z,5.72
2022-09-20T18:49:32.037Z,5.47
2022-09-20T18:52:00.608Z,5.55
2022-09-20T18:54:30.364Z,6.30
2022-09-20T18:56:59.104Z,6.20
2022-09-20T18:59:29.647Z,6.03
2022-09-20T19:02:33.329Z,6.65
2022-09-20T19:05:15.507Z,7.60
2022-09-20T19:07:54.084Z,7.40
2022-09-20T19:10:37.868Z,7.90
2022-09-20T19:13:16.635Z,8.48
2022-09-20T19:16:00.506Z,7.28
2022-09-20T19:18:47.157Z,8.13
2022-09-20T19:21:25.622Z,8.02
2022-09-20T19:24:07.174Z,7.60
2022-09-20T19:26:38.394Z,8.00
2022-09-20T19:29:18.339Z,8.52
2022-09-20T19:31:49.217Z,7.90
2022-09-20T19:34:21.431Z,8.05
2022-09-20T19:37:01.045Z,7.82
2022-09-20T19:39:55.227Z,7.15
2022-09-20T19:42:30.104Z,6.90
2022-09-20T19:45:08.151Z,7.10
2022-09-20T19:47:47.461Z,6.78
2022-09-20T19:50:23.998Z,7.93
2022-09-20T19:52:52.768Z,7.22
2022-09-20T19:55:21.464Z,6.78
2022-09-20T19:57:50.244Z,7.40
2022-09-20T20:00:21.415Z,7.55
2022-09-20T20:02:51.653Z,6.95
2022-09-20T20:05:25.718Z,7.47
2022-09-20T20:08:04.708Z,7.18
2022-09-20T20:10:39.842Z,7.18
2022-09-20T20:13:28.803Z,8.40
2022-09-20T20:16:03.412Z,8.88
2022-09-20T20:18:43.834Z,8.15
2022-09-20T20:21:20.627Z,8.18
2022-09-20T20:24:00.255Z,8.20
2022-09-20T20:26:28.499Z,8.40
2022-09-20T20:28:56.753Z,8.60
2022-09-20T20:31:25.294Z,8.57
2022-09-20T20:33:55.518Z,8.15
2022-09-20T20:36:23.972Z,9.85
2022-09-20T20:38:53.392Z,8.98
2022-09-20T20:41:23.699Z,9.50
2022-09-20T20:43:56.409Z,9.52
2022-09-20T20:46:25.875Z,9.35
2022-09-20T20:48:55.880Z,8.93
2022-09-20T20:51:24.981Z,8.65
2022-09-20T20:53:54.969Z,9.05
2022-09-20T20:56:25.845Z,9.15
2022-09-20T20:58:54.591Z,8.57
2022-09-20T21:01:24.702Z,9.43
2022-09-20T21:03:56.149Z,8.70
2022-09-20T21:06:27.414Z,8.55
2022-09-20T21:08:55.739Z,8.77
2022-09-20T21:11:25.304Z,8.77
2022-09-20T21:13:54.680Z,8.40
2022-09-20T21:16:25.055Z,8.25
2022-09-20T21:18:53.541Z,8.15
2022-09-20T21:21:27.040Z,8.00
2022-09-20T21:23:56.678Z,8.27
2022-09-20T21:26:27.853Z,9.02
2022-09-20T21:28:59.644Z,9.00
2022-09-20T21:31:29.424Z,8.45
2022-09-20T21:33:58.350Z,8.40
2022-09-20T21:36:29.732Z,8.60
2022-09-20T21:38:58.725Z,8.43
2022-09-20T21:41:29.353Z,9.20
2022-09-20T21:44:00.469Z,8.60
2022-09-20T21:46:30.646Z,8.38
2022-09-20T21:49:00.560Z,9.23
2022-09-20T21:51:31.353Z,9.05
2022-09-20T21:54:01.646Z,9.00
2022-09-20T21:56:32.636Z,9.55
2022-09-20T21:59:03.051Z,9.32
2022-09-20T22:01:34.705Z,9.23
2022-09-20T22:04:07.215Z,8.65
2022-09-20T22:06:39.433Z,8.32
2022-09-20T22:09:09.719Z,8.82
2022-09-20T22:11:40.636Z,9.02
2022-09-20T22:14:10.415Z,9.60
2022-09-20T22:16:40.946Z,10.00
2022-09-20T22:19:11.565Z,9.60
2022-09-20T22:21:44.542Z,9.27
2022-09-20T22:24:14.849Z,8.98
2022-09-20T22:26:45.364Z,9.38
2022-09-20T22:29:13.981Z,10.00
2022-09-20T22:31:46.404Z,10.00
2022-09-20T22:34:16.595Z,9.65
2022-09-20T22:36:47.059Z,9.82
2022-09-20T22:39:17.376Z,10.60
2022-09-20T22:41:48.102Z,9.65
2022-09-20T22:44:16.768Z,9.55
2022-09-20T22:46:45.458Z,10.10
2022-09-20T22:49:14.678Z,10.23
2022-09-20T22:51:43.548Z,9.43
2022-09-20T22:54:14.200Z,9.82
2022-09-20T22:56:42.952Z,9.40
2022-09-20T22:59:13.488Z,10.05
2022-09-20T23:01:44.001Z,9.70
2022-09-20T23:04:14.213Z,9.18
2022-09-20T23:06:44.970Z,10.38
2022-09-20T23:09:16.337Z,8.80
2022-09-20T23:11:45.967Z,10.55
2022-09-20T23:14:16.332Z,10.60
2022-09-20T23:16:46.505Z,11.60
2022-09-20T23:19:15.616Z,10.13
2022-09-20T23:21:45.133Z,10.20
2022-09-20T23:24:16.494Z,9.75
2022-09-20T23:26:45.647Z,10.48
2022-09-20T23:29:16.231Z,9.68
2022-09-20T23:31:47.390Z,8.95
2022-09-20T23:34:17.674Z,9.13
2022-09-20T23:36:47.302Z,9.07
2022-09-20T23:39:17.664Z,10.48
2022-09-20T23:41:50.927Z,10.18
2022-09-20T23:46:48.629Z,9.45
2022-09-20T23:49:17.218Z,9.65
2022-09-20T23:51:46.018Z,9.75
2022-09-20T23:54:14.652Z,9.90
2022-09-20T23:56:44.514Z,9.88
2022-09-20T23:59:13.127Z,9.23
